KVSF/VSF METAR and TAF weather

Enter ICAO airport designator
Station Type Date Time Source
KVSF METAR 2019/10/14 05:30 UTC NOAA

KVSF 140530Z AUTO 00000KT 10SM BKN002 03/02 A3003 RMK AO2 T00280017


Station Type Date Time Source
KVSF Decoded METAR 2019/10/14 05:30 UTC NOAA

HARTNESS STATE AIRPORT, VT, United States (KVSF) 43-21N 72-31W 175M
Oct 14, 2019 - 01:30 AM EDT / 2019.10.14 0530 UTC
Wind: Calm:0
Visibility: 10 mile(s):0
Sky conditions: mostly cloudy
Temperature: 37.0 F (2.8 C)
Dew Point: 35.1 F (1.7 C)
Relative Humidity: 92%
Pressure (altimeter): 30.03 in. Hg (1016 hPa)
ob: KVSF 140530Z AUTO 00000KT 10SM BKN002 03/02 A3003 RMK AO2 T00280017
cycle: 5

Station Type Date Time Source
KVSF TAF UTC NOAA

Error!

Example: see airport list